sensor_id;sensor_type;location;lat;lon;timestamp;pressure;altitude;pressure_sealevel;temperature;humidity
19748;BME280;10032;51.386;12.516;2022-11-15T00:00:27;100097.50;;;6.58;100.00
19748;BME280;10032;51.386;12.516;2022-11-15T00:02:53;100088.22;;;6.54;100.00
19748;BME280;10032;51.386;12.516;2022-11-15T00:05:18;100083.88;;;6.53;100.00
19748;BME280;10032;51.386;12.516;2022-11-15T00:07:44;100085.53;;;6.54;100.00
19748;BME280;10032;51.386;12.516;2022-11-15T00:10:09;100087.63;;;6.52;100.00
19748;BME280;10032;51.386;12.516;2022-11-15T00:12:35;100082.69;;;6.49;100.00
19748;BME280;10032;51.386;12.516;2022-11-15T00:15:00;100084.31;;;6.50;100.00
19748;BME280;10032;51.386;12.516;2022-11-15T00:17:25;100083.72;;;6.48;100.00
19748;BME280;10032;51.386;12.516;2022-11-15T00:19:51;100082.69;;;6.49;100.00
19748;BME280;10032;51.386;12.516;2022-11-15T00:22:16;100084.09;;;6.52;100.00
19748;BME280;10032;51.386;12.516;2022-11-15T00:24:41;100087.63;;;6.52;100.00
19748;BME280;10032;51.386;12.516;2022-11-15T00:27:08;100084.31;;;6.50;100.00
19748;BME280;10032;51.386;12.516;2022-11-15T00:29:33;100077.88;;;6.51;100.00
19748;BME280;10032;51.386;12.516;2022-11-15T00:31:59;100081.41;;;6.52;100.00
19748;BME280;10032;51.386;12.516;2022-11-15T00:34:24;100071.47;;;6.52;100.00
19748;BME280;10032;51.386;12.516;2022-11-15T00:36:50;100066.91;;;6.53;100.00
19748;BME280;10032;51.386;12.516;2022-11-15T00:39:15;100072.28;;;6.53;100.00
19748;BME280;10032;51.386;12.516;2022-11-15T00:41:40;100064.44;;;6.51;100.00
19748;BME280;10032;51.386;12.516;2022-11-15T00:44:06;100069.00;;;6.51;100.00
19748;BME280;10032;51.386;12.516;2022-11-15T00:46:31;100073.56;;;6.50;100.00
19748;BME280;10032;51.386;12.516;2022-11-15T00:48:56;100064.91;;;6.48;100.00
19748;BME280;10032;51.386;12.516;2022-11-15T00:51:22;100063.25;;;6.47;100.00
19748;BME280;10032;51.386;12.516;2022-11-15T00:53:47;100062.00;;;6.50;100.00
19748;BME280;10032;51.386;12.516;2022-11-15T00:56:13;100070.06;;;6.50;100.00
19748;BME280;10032;51.386;12.516;2022-11-15T00:58:38;100069.38;;;6.54;100.00
19748;BME280;10032;51.386;12.516;2022-11-15T01:01:09;100065.19;;;6.58;100.00
19748;BME280;10032;51.386;12.516;2022-11-15T01:03:35;100068.03;;;6.63;100.00
19748;BME280;10032;51.386;12.516;2022-11-15T01:06:01;100063.44;;;6.64;100.00
19748;BME280;10032;51.386;12.516;2022-11-15T01:08:26;100053.88;;;6.68;100.00
19748;BME280;10032;51.386;12.516;2022-11-15T01:10:51;100062.94;;;6.73;100.00
19748;BME280;10032;51.386;12.516;2022-11-15T01:13:17;100056.84;;;6.78;100.00
19748;BME280;10032;51.386;12.516;2022-11-15T01:15:43;100058.28;;;6.80;100.00
19748;BME280;10032;51.386;12.516;2022-11-15T01:18:08;100050.41;;;6.79;100.00
19748;BME280;10032;51.386;12.516;2022-11-15T01:20:34;100050.91;;;6.76;100.00
19748;BME280;10032;51.386;12.516;2022-11-15T01:22:59;100049.91;;;6.70;100.00
19748;BME280;10032;51.386;12.516;2022-11-15T01:25:25;100049.34;;;6.68;100.00
19748;BME280;10032;51.386;12.516;2022-11-15T01:27:50;100043.13;;;6.68;100.00
19748;BME280;10032;51.386;12.516;2022-11-15T01:30:15;100051.34;;;6.73;100.00
19748;BME280;10032;51.386;12.516;2022-11-15T01:32:41;100043.03;;;6.74;100.00
19748;BME280;10032;51.386;12.516;2022-11-15T01:35:07;100043.03;;;6.74;100.00
19748;BME280;10032;51.386;12.516;2022-11-15T01:37:32;100046.31;;;6.76;100.00
19748;BME280;10032;51.386;12.516;2022-11-15T01:39:58;100040.47;;;6.79;100.00
19748;BME280;10032;51.386;12.516;2022-11-15T01:42:23;100043.75;;;6.81;100.00
19748;BME280;10032;51.386;12.516;2022-11-15T01:44:50;100042.13;;;6.80;100.00
19748;BME280;10032;51.386;12.516;2022-11-15T01:47:26;100037.56;;;6.81;100.00
19748;BME280;10032;51.386;12.516;2022-11-15T01:50:05;100042.25;;;6.85;100.00
19748;BME280;10032;51.386;12.516;2022-11-15T01:52:32;100025.06;;;6.86;100.00
19748;BME280;10032;51.386;12.516;2022-11-15T01:55:03;100030.78;;;6.90;100.00
19748;BME280;10032;51.386;12.516;2022-11-15T01:57:30;100027.03;;;6.91;100.00
19748;BME280;10032;51.386;12.516;2022-11-15T01:59:57;100015.00;;;6.93;100.00
19748;BME280;10032;51.386;12.516;2022-11-15T02:02:23;100016.88;;;6.93;100.00
19748;BME280;10032;51.386;12.516;2022-11-15T02:04:48;100009.59;;;6.93;100.00
19748;BME280;10032;51.386;12.516;2022-11-15T02:07:19;100011.28;;;6.94;100.00
19748;BME280;10032;51.386;12.516;2022-11-15T02:09:46;100012.91;;;6.95;100.00
19748;BME280;10032;51.386;12.516;2022-11-15T02:12:15;100004.84;;;6.95;100.00
19748;BME280;10032;51.386;12.516;2022-11-15T02:14:43;100002.59;;;6.92;100.00
19748;BME280;10032;51.386;12.516;2022-11-15T02:33:41;99988.81;;;7.00;100.00
19748;BME280;10032;51.386;12.516;2022-11-15T02:36:18;99993.13;;;7.01;100.00
19748;BME280;10032;51.386;12.516;2022-11-15T02:39:02;99977.44;;;6.98;100.00
19748;BME280;10032;51.386;12.516;2022-11-15T02:42:14;99973.09;;;6.97;100.00
19748;BME280;10032;51.386;12.516;2022-11-15T02:45:04;99977.06;;;6.95;100.00
19748;BME280;10032;51.386;12.516;2022-11-15T02:47:35;99974.03;;;6.91;100.00
19748;BME280;10032;51.386;12.516;2022-11-15T02:50:11;99971.78;;;6.88;100.00
19748;BME280;10032;51.386;12.516;2022-11-15T02:52:37;99975.31;;;6.89;100.00
19748;BME280;10032;51.386;12.516;2022-11-15T02:55:03;99970.63;;;6.84;100.00
19748;BME280;10032;51.386;12.516;2022-11-15T02:57:52;99975.75;;;6.86;100.00
19748;BME280;10032;51.386;12.516;2022-11-15T03:00:20;99977.56;;;6.92;100.00
19748;BME280;10032;51.386;12.516;2022-11-15T03:05:32;99973.72;;;6.99;100.00
19748;BME280;10032;51.386;12.516;2022-11-15T03:13:38;99973.31;;;6.96;100.00
19748;BME280;10032;51.386;12.516;2022-11-15T03:16:13;99972.75;;;6.94;100.00
19748;BME280;10032;51.386;12.516;2022-11-15T03:18:47;99964.88;;;6.92;100.00
19748;BME280;10032;51.386;12.516;2022-11-15T03:21:15;99963.03;;;6.93;100.00
19748;BME280;10032;51.386;12.516;2022-11-15T03:23:44;99970.88;;;6.94;100.00
19748;BME280;10032;51.386;12.516;2022-11-15T03:26:14;99962.81;;;6.94;100.00
19748;BME280;10032;51.386;12.516;2022-11-15T03:28:55;99954.72;;;6.94;100.00
19748;BME280;10032;51.386;12.516;2022-11-15T03:31:24;99959.06;;;6.95;100.00
19748;BME280;10032;51.386;12.516;2022-11-15T03:34:25;99957.41;;;6.94;100.00
19748;BME280;10032;51.386;12.516;2022-11-15T03:36:51;99954.47;;;6.96;100.00
19748;BME280;10032;51.386;12.516;2022-11-15T03:39:19;99951.66;;;6.91;100.00
19748;BME280;10032;51.386;12.516;2022-11-15T03:42:07;99948.72;;;6.92;100.00
19748;BME280;10032;51.386;12.516;2022-11-15T03:44:42;99948.16;;;6.90;100.00
19748;BME280;10032;51.386;12.516;2022-11-15T03:47:16;99948.38;;;6.89;100.00
19748;BME280;10032;51.386;12.516;2022-11-15T03:49:56;99951.44;;;6.92;100.00
19748;BME280;10032;51.386;12.516;2022-11-15T03:52:22;99955.31;;;6.96;100.00
19748;BME280;10032;51.386;12.516;2022-11-15T03:54:53;99949.91;;;6.96;100.00
19748;BME280;10032;51.386;12.516;2022-11-15T03:57:19;99948.41;;;7.00;100.00
19748;BME280;10032;51.386;12.516;2022-11-15T03:59:44;99954.38;;;7.02;100.00
19748;BME280;10032;51.386;12.516;2022-11-15T04:02:11;99948.16;;;7.02;100.00
19748;BME280;10032;51.386;12.516;2022-11-15T04:04:36;99947.94;;;7.03;100.00
19748;BME280;10032;51.386;12.516;2022-11-15T04:07:02;99953.09;;;7.05;100.00
19748;BME280;10032;51.386;12.516;2022-11-15T04:09:27;99951.25;;;7.05;100.00
19748;BME280;10032;51.386;12.516;2022-11-15T04:11:53;99957.06;;;7.02;100.00
19748;BME280;10032;51.386;12.516;2022-11-15T04:14:18;99947.59;;;7.00;100.00
19748;BME280;10032;51.386;12.516;2022-11-15T04:16:43;99949.91;;;6.96;100.00
19748;BME280;10032;51.386;12.516;2022-11-15T04:19:09;99951.78;;;6.96;100.00
19748;BME280;10032;51.386;12.516;2022-11-15T04:21:53;99951.09;;;7.00;100.00
19748;BME280;10032;51.386;12.516;2022-11-15T04:24:50;99950.28;;;7.00;100.00
19748;BME280;10032;51.386;12.516;2022-11-15T04:27:16;99951.56;;;6.97;100.00
19748;BME280;10032;51.386;12.516;2022-11-15T04:29:41;99952.03;;;6.94;100.00
19748;BME280;10032;51.386;12.516;2022-11-15T04:32:07;99943.56;;;6.91;100.00
19748;BME280;10032;51.386;12.516;2022-11-15T04:34:32;99941.13;;;6.89;100.00
19748;BME280;10032;51.386;12.516;2022-11-15T04:36:58;99939.47;;;6.88;100.00
19748;BME280;10032;51.386;12.516;2022-11-15T04:39:39;99933.50;;;6.86;100.00
19748;BME280;10032;51.386;12.516;2022-11-15T04:42:05;99937.59;;;6.89;100.00
19748;BME280;10032;51.386;12.516;2022-11-15T04:44:30;99934.34;;;6.87;100.00
19748;BME280;10032;51.386;12.516;2022-11-15T04:46:56;99940.16;;;6.84;100.00
19748;BME280;10032;51.386;12.516;2022-11-15T04:49:21;99930.09;;;6.79;100.00
19748;BME280;10032;51.386;12.516;2022-11-15T04:51:47;99927.84;;;6.76;100.00
19748;BME280;10032;51.386;12.516;2022-11-15T04:54:12;99925.78;;;6.78;100.00
19748;BME280;10032;51.386;12.516;2022-11-15T04:56:37;99930.34;;;6.78;100.00
19748;BME280;10032;51.386;12.516;2022-11-15T04:59:03;99932.78;;;6.79;100.00
19748;BME280;10032;51.386;12.516;2022-11-15T05:01:28;99931.75;;;6.80;100.00
19748;BME280;10032;51.386;12.516;2022-11-15T05:03:54;99930.09;;;6.79;100.00
19748;BME280;10032;51.386;12.516;2022-11-15T05:06:37;99930.09;;;6.79;100.00
19748;BME280;10032;51.386;12.516;2022-11-15T05:09:03;99927.41;;;6.79;100.00
19748;BME280;10032;51.386;12.516;2022-11-15T05:11:29;99923.88;;;6.79;100.00
19748;BME280;10032;51.386;12.516;2022-11-15T05:13:54;99927.84;;;6.76;100.00
19748;BME280;10032;51.386;12.516;2022-11-15T05:16:20;99924.59;;;6.74;100.00
19748;BME280;10032;51.386;12.516;2022-11-15T05:18:45;99923.75;;;6.74;100.00
19748;BME280;10032;51.386;12.516;2022-11-15T05:21:14;99919.44;;;6.73;100.00
19748;BME280;10032;51.386;12.516;2022-11-15T05:23:40;99923.41;;;6.70;100.00
19748;BME280;10032;51.386;12.516;2022-11-15T05:26:06;99916.38;;;6.69;100.00
19748;BME280;10032;51.386;12.516;2022-11-15T05:28:33;99919.22;;;6.74;100.00
19748;BME280;10032;51.386;12.516;2022-11-15T05:31:10;99918.59;;;6.72;100.00
19748;BME280;10032;51.386;12.516;2022-11-15T05:33:38;99917.66;;;6.67;100.00
19748;BME280;10032;51.386;12.516;2022-11-15T05:36:09;99916.47;;;6.63;100.00
19748;BME280;10032;51.386;12.516;2022-11-15T05:38:36;99909.09;;;6.58;100.00
19748;BME280;10032;51.386;12.516;2022-11-15T05:41:03;99913.28;;;6.54;100.00
19748;BME280;10032;51.386;12.516;2022-11-15T05:43:31;99906.13;;;6.48;100.00
19748;BME280;10032;51.386;12.516;2022-11-15T05:45:58;99908.81;;;6.48;100.00
19748;BME280;10032;51.386;12.516;2022-11-15T05:48:24;99903.44;;;6.48;100.00
19748;BME280;10032;51.386;12.516;2022-11-15T05:50:50;99906.59;;;6.45;100.00
19748;BME280;10032;51.386;12.516;2022-11-15T05:53:18;99909.28;;;6.45;100.00
19748;BME280;10032;51.386;12.516;2022-11-15T05:55:44;99907.19;;;6.47;100.00
19748;BME280;10032;51.386;12.516;2022-11-15T05:58:10;99905.53;;;6.46;100.00
19748;BME280;10032;51.386;12.516;2022-11-15T06:00:36;99911.53;;;6.48;100.00
19748;BME280;10032;51.386;12.516;2022-11-15T06:03:01;99905.78;;;6.45;100.00
19748;BME280;10032;51.386;12.516;2022-11-15T06:05:27;99914.66;;;6.45;100.00
19748;BME280;10032;51.386;12.516;2022-11-15T06:07:52;99904.72;;;6.46;100.00
19748;BME280;10032;51.386;12.516;2022-11-15T06:10:18;99904.72;;;6.46;100.00
19748;BME280;10032;51.386;12.516;2022-11-15T06:12:43;99901.19;;;6.45;100.00
19748;BME280;10032;51.386;12.516;2022-11-15T06:15:08;99901.19;;;6.45;100.00
19748;BME280;10032;51.386;12.516;2022-11-15T06:17:34;99906.00;;;6.43;100.00
19748;BME280;10032;51.386;12.516;2022-11-15T06:19:59;99907.72;;;6.38;100.00
19748;BME280;10032;51.386;12.516;2022-11-15T06:22:25;99910.28;;;6.33;100.00
19748;BME280;10032;51.386;12.516;2022-11-15T06:24:50;99909.13;;;6.29;100.00
19748;BME280;10032;51.386;12.516;2022-11-15T06:27:15;99903.72;;;6.29;100.00
19748;BME280;10032;51.386;12.516;2022-11-15T06:29:41;99900.44;;;6.27;100.00
19748;BME280;10032;51.386;12.516;2022-11-15T06:32:07;99912.47;;;6.24;100.00
19748;BME280;10032;51.386;12.516;2022-11-15T06:34:32;99918.69;;;6.25;100.00
19748;BME280;10032;51.386;12.516;2022-11-15T06:36:58;99920.53;;;6.24;100.00
19748;BME280;10032;51.386;12.516;2022-11-15T06:39:23;99918.31;;;6.21;100.00
19748;BME280;10032;51.386;12.516;2022-11-15T06:41:48;99916.22;;;6.23;100.00
19748;BME280;10032;51.386;12.516;2022-11-15T06:44:14;99917.84;;;6.24;100.00
19748;BME280;10032;51.386;12.516;2022-11-15T06:46:39;99912.81;;;6.28;100.00
19748;BME280;10032;51.386;12.516;2022-11-15T06:49:05;99915.28;;;6.29;100.00
19748;BME280;10032;51.386;12.516;2022-11-15T06:51:30;99918.22;;;6.28;100.00
19748;BME280;10032;51.386;12.516;2022-11-15T06:53:55;99926.53;;;6.26;100.00
19748;BME280;10032;51.386;12.516;2022-11-15T06:56:21;99922.78;;;6.27;100.00
19748;BME280;10032;51.386;12.516;2022-11-15T06:58:46;99926.88;;;6.30;100.00
19748;BME280;10032;51.386;12.516;2022-11-15T07:01:12;99919.41;;;6.32;100.00
19748;BME280;10032;51.386;12.516;2022-11-15T07:03:39;99926.06;;;6.29;100.00
19748;BME280;10032;51.386;12.516;2022-11-15T07:06:05;99928.16;;;6.27;100.00
19748;BME280;10032;51.386;12.516;2022-11-15T07:08:31;99929.81;;;6.28;100.00
19748;BME280;10032;51.386;12.516;2022-11-15T07:11:01;99930.16;;;6.32;100.00
19748;BME280;10032;51.386;12.516;2022-11-15T07:13:29;99942.13;;;6.36;100.00
19748;BME280;10032;51.386;12.516;2022-11-15T07:15:54;99926.81;;;6.36;100.00
19748;BME280;10032;51.386;12.516;2022-11-15T07:18:20;99936.75;;;6.36;100.00
19748;BME280;10032;51.386;12.516;2022-11-15T07:20:46;99935.91;;;6.35;100.00
19748;BME280;10032;51.386;12.516;2022-11-15T07:23:11;99926.19;;;6.34;100.00
19748;BME280;10032;51.386;12.516;2022-11-15T07:25:37;99925.13;;;6.35;100.00
19748;BME280;10032;51.386;12.516;2022-11-15T07:28:02;99929.84;;;6.40;100.00
19748;BME280;10032;51.386;12.516;2022-11-15T07:30:28;99925.41;;;6.45;100.00
19748;BME280;10032;51.386;12.516;2022-11-15T07:32:55;99916.44;;;6.51;100.00
19748;BME280;10032;51.386;12.516;2022-11-15T07:35:20;99921.28;;;6.61;100.00
19748;BME280;10032;51.386;12.516;2022-11-15T07:37:56;99919.28;;;6.68;100.00
19748;BME280;10032;51.386;12.516;2022-11-15T07:40:22;99915.47;;;6.75;100.00
19748;BME280;10032;51.386;12.516;2022-11-15T07:42:48;99923.78;;;6.85;100.00
19748;BME280;10032;51.386;12.516;2022-11-15T07:45:23;99923.44;;;6.93;100.00
19748;BME280;10032;51.386;12.516;2022-11-15T07:47:51;99922.88;;;7.03;100.00
19748;BME280;10032;51.386;12.516;2022-11-15T07:50:17;99921.97;;;7.09;100.00
19748;BME280;10032;51.386;12.516;2022-11-15T07:52:43;99931.91;;;7.20;100.00
19748;BME280;10032;51.386;12.516;2022-11-15T07:55:09;99926.56;;;7.31;100.00
19748;BME280;10032;51.386;12.516;2022-11-15T07:57:35;99932.53;;;7.45;100.00
19748;BME280;10032;51.386;12.516;2022-11-15T08:00:00;99930.88;;;7.55;100.00
19748;BME280;10032;51.386;12.516;2022-11-15T08:02:25;99932.72;;;7.66;100.00
19748;BME280;10032;51.386;12.516;2022-11-15T08:04:51;99921.59;;;7.74;100.00
19748;BME280;10032;51.386;12.516;2022-11-15T08:07:16;99923.44;;;7.85;100.00
19748;BME280;10032;51.386;12.516;2022-11-15T08:09:41;99922.03;;;7.94;100.00
19748;BME280;10032;51.386;12.516;2022-11-15T08:12:07;99928.44;;;8.05;100.00
19748;BME280;10032;51.386;12.516;2022-11-15T08:14:32;99927.94;;;8.19;100.00
19748;BME280;10032;51.386;12.516;2022-11-15T08:16:58;99924.28;;;8.25;100.00
19748;BME280;10032;51.386;12.516;2022-11-15T08:19:23;99917.47;;;8.34;100.00
19748;BME280;10032;51.386;12.516;2022-11-15T08:21:49;99913.56;;;8.42;100.00
19748;BME280;10032;51.386;12.516;2022-11-15T08:24:14;99917.19;;;8.47;100.00
19748;BME280;10032;51.386;12.516;2022-11-15T08:26:40;99921.13;;;8.56;100.00
19748;BME280;10032;51.386;12.516;2022-11-15T08:29:06;99915.91;;;8.66;100.00
19748;BME280;10032;51.386;12.516;2022-11-15T08:31:32;99918.78;;;8.76;100.00
19748;BME280;10032;51.386;12.516;2022-11-15T08:33:58;99914.03;;;8.83;100.00
19748;BME280;10032;51.386;12.516;2022-11-15T08:36:23;99914.13;;;8.88;100.00
19748;BME280;10032;51.386;12.516;2022-11-15T08:38:48;99913.66;;;8.91;100.00
19748;BME280;10032;51.386;12.516;2022-11-15T08:41:23;99918.06;;;8.97;100.00
19748;BME280;10032;51.386;12.516;2022-11-15T08:43:49;99915.78;;;9.06;100.00
19748;BME280;10032;51.386;12.516;2022-11-15T08:46:15;99908.91;;;9.15;100.00
19748;BME280;10032;51.386;12.516;2022-11-15T08:48:40;99914.47;;;9.25;100.00
19748;BME280;10032;51.386;12.516;2022-11-15T08:51:06;99901.38;;;9.33;100.00
19748;BME280;10032;51.386;12.516;2022-11-15T08:53:31;99897.66;;;9.39;100.00
19748;BME280;10032;51.386;12.516;2022-11-15T08:55:57;99898.31;;;9.46;100.00
19748;BME280;10032;51.386;12.516;2022-11-15T08:58:22;99899.75;;;9.54;100.00
19748;BME280;10032;51.386;12.516;2022-11-15T09:00:48;99889.94;;;9.64;100.00
19748;BME280;10032;51.386;12.516;2022-11-15T09:03:13;99885.69;;;9.73;100.00
19748;BME280;10032;51.386;12.516;2022-11-15T09:05:38;99889.13;;;9.85;100.00
19748;BME280;10032;51.386;12.516;2022-11-15T09:08:04;99889.81;;;9.97;100.00
19748;BME280;10032;51.386;12.516;2022-11-15T09:10:30;99885.69;;;10.11;100.00
19748;BME280;10032;51.386;12.516;2022-11-15T09:12:57;99886.38;;;10.23;100.00
19748;BME280;10032;51.386;12.516;2022-11-15T09:15:22;99885.41;;;10.34;100.00
19748;BME280;10032;51.386;12.516;2022-11-15T09:17:48;99891.47;;;10.46;100.00
19748;BME280;10032;51.386;12.516;2022-11-15T09:20:14;99880.75;;;10.56;100.00
19748;BME280;10032;51.386;12.516;2022-11-15T09:22:39;99883.56;;;10.66;100.00
19748;BME280;10032;51.386;12.516;2022-11-15T09:25:05;99887.50;;;10.80;100.00
19748;BME280;10032;51.386;12.516;2022-11-15T09:27:31;99886.25;;;10.93;100.00
19748;BME280;10032;51.386;12.516;2022-11-15T09:29:57;99886.31;;;11.03;100.00
19748;BME280;10032;51.386;12.516;2022-11-15T09:32:22;99872.84;;;11.13;100.00
19748;BME280;10032;51.386;12.516;2022-11-15T09:34:49;99882.44;;;11.25;100.00
19748;BME280;10032;51.386;12.516;2022-11-15T09:37:14;99876.00;;;11.36;100.00
19748;BME280;10032;51.386;12.516;2022-11-15T09:39:40;99878.81;;;11.51;100.00
19748;BME280;10032;51.386;12.516;2022-11-15T09:45:18;99865.94;;;11.73;100.00
19748;BME280;10032;51.386;12.516;2022-11-15T09:50:45;99873.66;;;11.91;100.00
19748;BME280;10032;51.386;12.516;2022-11-15T09:53:14;99875.03;;;11.99;100.00
19748;BME280;10032;51.386;12.516;2022-11-15T09:56:01;99876.44;;;12.06;100.00
19748;BME280;10032;51.386;12.516;2022-11-15T09:58:56;99868.56;;;12.15;100.00
19748;BME280;10032;51.386;12.516;2022-11-15T10:04:43;99858.84;;;12.34;100.00
19748;BME280;10032;51.386;12.516;2022-11-15T10:10:20;99860.78;;;12.53;100.00
19748;BME280;10032;51.386;12.516;2022-11-15T10:12:50;99848.84;;;12.59;100.00
19748;BME280;10032;51.386;12.516;2022-11-15T10:15:18;99854.84;;;12.66;100.00
19748;BME280;10032;51.386;12.516;2022-11-15T10:20:29;99840.69;;;12.84;100.00
19748;BME280;10032;51.386;12.516;2022-11-15T10:22:59;99847.50;;;12.92;100.00
19748;BME280;10032;51.386;12.516;2022-11-15T10:25:32;99837.47;;;13.02;100.00
19748;BME280;10032;51.386;12.516;2022-11-15T10:30:38;99824.38;;;13.29;100.00
19748;BME280;10032;51.386;12.516;2022-11-15T10:41:23;99828.09;;;13.63;100.00
19748;BME280;10032;51.386;12.516;2022-11-15T10:46:34;99814.41;;;13.83;100.00
19748;BME280;10032;51.386;12.516;2022-11-15T10:49:17;99825.78;;;13.95;100.00
19748;BME280;10032;51.386;12.516;2022-11-15T10:51:47;99820.88;;;14.02;100.00
19748;BME280;10032;51.386;12.516;2022-11-15T10:56:57;99813.19;;;14.19;100.00
19748;BME280;10032;51.386;12.516;2022-11-15T10:59:27;99812.03;;;14.30;100.00
19748;BME280;10032;51.386;12.516;2022-11-15T11:01:53;99802.69;;;14.41;100.00
19748;BME280;10032;51.386;12.516;2022-11-15T11:04:18;99800.44;;;14.48;100.00
19748;BME280;10032;51.386;12.516;2022-11-15T11:06:59;99802.03;;;14.59;100.00
19748;BME280;10032;51.386;12.516;2022-11-15T11:09:32;99791.59;;;14.66;100.00
19748;BME280;10032;51.386;12.516;2022-11-15T11:11:58;99793.41;;;14.76;100.00
19748;BME280;10032;51.386;12.516;2022-11-15T11:14:35;99783.28;;;14.81;100.00
19748;BME280;10032;51.386;12.516;2022-11-15T11:36:19;99769.47;;;15.25;100.00
19748;BME280;10032;51.386;12.516;2022-11-15T11:41:56;99763.97;;;15.30;100.00
19748;BME280;10032;51.386;12.516;2022-11-15T11:44:32;99764.78;;;15.35;100.00
19748;BME280;10032;51.386;12.516;2022-11-15T11:47:11;99754.69;;;15.36;100.00
19748;BME280;10032;51.386;12.516;2022-11-15T11:49:51;99744.03;;;15.34;100.00
19748;BME280;10032;51.386;12.516;2022-11-15T11:52:28;99738.59;;;15.29;100.00
19748;BME280;10032;51.386;12.516;2022-11-15T11:55:18;99736.16;;;15.28;100.00
19748;BME280;10032;51.386;12.516;2022-11-15T12:00:33;99728.84;;;15.23;100.00
19748;BME280;10032;51.386;12.516;2022-11-15T12:03:14;99725.53;;;15.26;100.00
19748;BME280;10032;51.386;12.516;2022-11-15T12:05:49;99726.84;;;15.29;100.00
19748;BME280;10032;51.386;12.516;2022-11-15T12:08:39;99726.56;;;15.30;100.00
19748;BME280;10032;51.386;12.516;2022-11-15T12:11:14;99723.84;;;15.30;100.00
19748;BME280;10032;51.386;12.516;2022-11-15T12:13:42;99720.59;;;15.33;100.00
19748;BME280;10032;51.386;12.516;2022-11-15T12:16:20;99710.47;;;15.34;100.00
19748;BME280;10032;51.386;12.516;2022-11-15T12:18:52;99713.41;;;15.37;100.00
19748;BME280;10032;51.386;12.516;2022-11-15T12:23:57;99700.88;;;15.36;100.00
19748;BME280;10032;51.386;12.516;2022-11-15T12:26:34;99700.31;;;15.39;100.00
19748;BME280;10032;51.386;12.516;2022-11-15T12:29:08;99698.13;;;15.36;100.00
19748;BME280;10032;51.386;12.516;2022-11-15T12:31:36;99692.16;;;15.34;100.00
19748;BME280;10032;51.386;12.516;2022-11-15T12:34:13;99700.88;;;15.36;100.00
19748;BME280;10032;51.386;12.516;2022-11-15T12:36:43;99687.66;;;15.43;100.00
19748;BME280;10032;51.386;12.516;2022-11-15T12:39:13;99685.25;;;15.42;100.00
19748;BME280;10032;51.386;12.516;2022-11-15T12:41:39;99689.38;;;15.39;100.00
19748;BME280;10032;51.386;12.516;2022-11-15T12:44:11;99678.69;;;15.43;100.00
19748;BME280;10032;51.386;12.516;2022-11-15T13:02:29;99654.84;;;15.48;100.00
19748;BME280;10032;51.386;12.516;2022-11-15T13:22:50;99653.88;;;15.39;100.00
19748;BME280;10032;51.386;12.516;2022-11-15T13:31:01;99643.47;;;15.41;100.00
19748;BME280;10032;51.386;12.516;2022-11-15T13:33:34;99640.69;;;15.46;100.00
19748;BME280;10032;51.386;12.516;2022-11-15T13:36:23;99643.41;;;15.46;100.00
19748;BME280;10032;51.386;12.516;2022-11-15T13:41:28;99643.97;;;15.43;100.00
19748;BME280;10032;51.386;12.516;2022-11-15T13:43:55;99641.63;;;15.37;100.00
19748;BME280;10032;51.386;12.516;2022-11-15T13:46:30;99637.78;;;15.38;100.00
19748;BME280;10032;51.386;12.516;2022-11-15T13:49:01;99635.28;;;15.41;100.00
19748;BME280;10032;51.386;12.516;2022-11-15T13:51:33;99623.78;;;15.44;100.00
19748;BME280;10032;51.386;12.516;2022-11-15T13:54:13;99618.34;;;15.44;100.00
19748;BME280;10032;51.386;12.516;2022-11-15T13:56:45;99620.53;;;15.42;100.00
19748;BME280;10032;51.386;12.516;2022-11-15T13:59:27;99622.75;;;15.40;100.00
19748;BME280;10032;51.386;12.516;2022-11-15T14:01:55;99625.47;;;15.40;100.00
19748;BME280;10032;51.386;12.516;2022-11-15T14:04:23;99619.81;;;15.37;100.00
19748;BME280;10032;51.386;12.516;2022-11-15T14:06:54;99618.47;;;15.34;100.00
19748;BME280;10032;51.386;12.516;2022-11-15T14:09:32;99612.22;;;15.29;100.00
19748;BME280;10032;51.386;12.516;2022-11-15T14:11:59;99613.63;;;15.26;100.00
19748;BME280;10032;51.386;12.516;2022-11-15T14:14:26;99604.91;;;15.24;100.00
19748;BME280;10032;51.386;12.516;2022-11-15T14:16:54;99606.59;;;15.20;100.00
19748;BME280;10032;51.386;12.516;2022-11-15T14:24:50;99598.31;;;15.07;100.00
19748;BME280;10032;51.386;12.516;2022-11-15T14:27:29;99597.06;;;14.99;100.00
19748;BME280;10032;51.386;12.516;2022-11-15T14:29:54;99604.50;;;14.94;100.00
19748;BME280;10032;51.386;12.516;2022-11-15T14:32:23;99605.41;;;14.84;100.00
19748;BME280;10032;51.386;12.516;2022-11-15T14:34:54;99602.75;;;14.79;100.00
19748;BME280;10032;51.386;12.516;2022-11-15T14:37:24;99604.50;;;14.70;100.00
19748;BME280;10032;51.386;12.516;2022-11-15T14:39:50;99601.81;;;14.65;100.00
19748;BME280;10032;51.386;12.516;2022-11-15T14:42:17;99596.72;;;14.59;100.00
19748;BME280;10032;51.386;12.516;2022-11-15T14:44:42;99593.56;;;14.47;100.00
19748;BME280;10032;51.386;12.516;2022-11-15T14:47:08;99589.38;;;14.31;100.00
19748;BME280;10032;51.386;12.516;2022-11-15T14:49:33;99594.09;;;14.20;100.00
19748;BME280;10032;51.386;12.516;2022-11-15T14:51:59;99583.84;;;14.07;100.00
19748;BME280;10032;51.386;12.516;2022-11-15T14:54:24;99578.47;;;13.97;100.00
19748;BME280;10032;51.386;12.516;2022-11-15T14:56:49;99583.19;;;13.87;100.00
19748;BME280;10032;51.386;12.516;2022-11-15T14:59:15;99578.91;;;13.76;100.00
19748;BME280;10032;51.386;12.516;2022-11-15T15:01:40;99572.16;;;13.68;100.00
19748;BME280;10032;51.386;12.516;2022-11-15T15:04:05;99574.41;;;13.61;100.00